Terminal Aerodrome Forecast
Issued by NWS

Home | Current Version | Previous Version | Text Only | Print | Product List | Glossary On
Versions: 1 2 3 4 5 6 7 8 9 10 11 12 13 14
000
FTAK31 PAJN 231100
TAFAPG
TAF
PAPG 231139Z 2312/2412 00000KT P6SM -SHRA BKN050 OVC100
     FM240000 06005KT P6SM SCT050 BKN100
     FM240600 00000KT P6SM FEW005 SCT100
      AMD LTD TO CLD VIS AND WIND 2312/2315=

USA.gov is the U.S. government's official web portal to all federal, state and local government web resources and services.